createdAt,value
2023-09-17T00:01:37.855Z,19.30
2023-09-17T00:04:07.579Z,18.20
2023-09-17T00:06:35.343Z,20.00
2023-09-17T00:09:04.750Z,19.50
2023-09-17T00:11:32.332Z,15.50
2023-09-17T00:13:59.827Z,18.40
2023-09-17T00:16:32.876Z,18.20
2023-09-17T00:19:01.309Z,19.20
2023-09-17T00:21:29.020Z,19.80
2023-09-17T00:23:56.547Z,19.80
2023-09-17T00:26:24.026Z,19.00
2023-09-17T00:28:52.338Z,18.30
2023-09-17T00:31:19.948Z,18.50
2023-09-17T00:33:47.726Z,19.50
2023-09-17T00:36:15.522Z,19.10
2023-09-17T00:38:43.078Z,19.60
2023-09-17T00:41:10.606Z,19.50
2023-09-17T00:43:38.181Z,18.90
2023-09-17T00:46:06.029Z,18.90
2023-09-17T00:48:33.988Z,19.60
2023-09-17T00:51:01.519Z,19.20
2023-09-17T00:53:29.371Z,18.80
2023-09-17T00:55:56.959Z,17.90
2023-09-17T00:58:24.522Z,18.30
2023-09-17T01:00:52.239Z,19.40
2023-09-17T01:03:19.960Z,19.00
2023-09-17T01:05:47.591Z,18.60
2023-09-17T01:08:15.391Z,17.50
2023-09-17T01:10:43.127Z,18.40
2023-09-17T01:13:11.304Z,19.40
2023-09-17T01:15:39.303Z,20.30
2023-09-17T01:18:07.663Z,18.80
2023-09-17T01:20:51.862Z,17.60
2023-09-17T01:23:52.870Z,19.00
2023-09-17T01:26:27.614Z,20.40
2023-09-17T01:28:55.716Z,19.50
2023-09-17T01:31:24.723Z,18.80
2023-09-17T01:33:53.047Z,17.60
2023-09-17T01:36:24.830Z,19.10
2023-09-17T01:38:54.093Z,19.70
2023-09-17T01:41:23.122Z,19.80
2023-09-17T01:43:50.994Z,18.90
2023-09-17T01:46:19.577Z,19.00
2023-09-17T01:48:48.650Z,19.50
2023-09-17T01:51:17.194Z,19.40
2023-09-17T01:53:45.596Z,20.40
2023-09-17T01:56:13.406Z,18.60
2023-09-17T01:58:40.968Z,18.30
2023-09-17T02:01:08.595Z,18.40
2023-09-17T02:03:36.414Z,19.30
2023-09-17T02:06:05.619Z,21.10
2023-09-17T02:08:33.190Z,14.30
2023-09-17T02:11:00.686Z,17.70
2023-09-17T02:13:28.232Z,19.30
2023-09-17T02:15:55.920Z,19.40
2023-09-17T02:18:23.841Z,19.70
2023-09-17T02:20:51.450Z,19.00
2023-09-17T02:23:19.090Z,18.60
2023-09-17T02:25:48.202Z,19.80
2023-09-17T02:28:15.936Z,19.50
2023-09-17T02:30:43.643Z,20.10
2023-09-17T02:33:11.963Z,19.00
2023-09-17T02:35:40.046Z,17.70
2023-09-17T02:38:07.555Z,17.80
2023-09-17T02:40:35.120Z,19.10
2023-09-17T02:43:03.092Z,18.00
2023-09-17T02:45:30.670Z,17.60
2023-09-17T02:47:58.507Z,18.10
2023-09-17T02:50:26.593Z,16.30
2023-09-17T02:52:54.472Z,16.30
2023-09-17T02:55:23.388Z,15.60
2023-09-17T02:57:51.211Z,16.60
2023-09-17T03:00:18.742Z,16.40
2023-09-17T03:02:51.916Z,15.10
2023-09-17T03:05:19.526Z,15.60
2023-09-17T03:07:48.026Z,15.60
2023-09-17T03:10:20.143Z,16.60
2023-09-17T03:12:47.986Z,15.50
2023-09-17T03:15:15.515Z,13.50
2023-09-17T03:17:44.363Z,15.10
2023-09-17T03:20:15.601Z,16.00
2023-09-17T03:25:33.065Z,15.20
2023-09-17T03:28:01.048Z,15.70
2023-09-17T03:30:29.201Z,14.90
2023-09-17T03:33:04.813Z,15.00
2023-09-17T03:35:38.749Z,15.50
2023-09-17T03:38:06.467Z,14.70
2023-09-17T03:40:35.066Z,13.30
2023-09-17T03:43:03.461Z,9.90
2023-09-17T03:45:32.381Z,13.30
2023-09-17T03:48:00.312Z,13.30
2023-09-17T03:50:31.911Z,13.50
2023-09-17T03:53:00.638Z,12.50
2023-09-17T03:55:28.141Z,11.50
2023-09-17T03:57:57.896Z,11.60
2023-09-17T04:00:26.631Z,13.00
2023-09-17T04:02:54.355Z,13.30
2023-09-17T04:05:22.855Z,12.80
2023-09-17T04:07:50.488Z,12.50
2023-09-17T04:10:18.637Z,12.30
2023-09-17T04:12:46.956Z,12.20
2023-09-17T04:15:20.394Z,13.30
2023-09-17T04:17:54.604Z,12.60
2023-09-17T04:20:22.555Z,13.00
2023-09-17T04:22:51.811Z,12.70
2023-09-17T04:25:21.435Z,11.50
2023-09-17T04:27:50.448Z,12.20
2023-09-17T04:32:48.957Z,12.50
2023-09-17T04:35:17.350Z,12.20
2023-09-17T04:37:46.181Z,12.00
2023-09-17T04:40:13.826Z,12.30
2023-09-17T04:42:49.946Z,12.00
2023-09-17T04:45:32.999Z,13.10
2023-09-17T04:48:00.706Z,12.40
2023-09-17T04:50:29.212Z,11.70
2023-09-17T04:52:56.951Z,11.20
2023-09-17T04:55:26.571Z,12.50
2023-09-17T04:57:54.521Z,13.00
2023-09-17T05:00:22.083Z,14.00
2023-09-17T05:02:50.539Z,13.00
2023-09-17T05:05:24.107Z,13.20
2023-09-17T05:07:54.164Z,13.30
2023-09-17T05:10:22.453Z,13.90
2023-09-17T05:12:50.198Z,15.30
2023-09-17T05:15:17.992Z,14.30
2023-09-17T05:17:45.590Z,13.40
2023-09-17T05:20:13.320Z,13.60
2023-09-17T05:22:40.891Z,14.10
2023-09-17T05:25:09.634Z,13.60
2023-09-17T05:27:38.438Z,13.80
2023-09-17T05:30:07.256Z,12.60
2023-09-17T05:32:34.893Z,12.60
2023-09-17T05:35:04.719Z,12.10
2023-09-17T05:40:02.148Z,12.80
2023-09-17T05:42:30.660Z,13.10
2023-09-17T05:44:58.899Z,12.20
2023-09-17T05:47:26.628Z,11.80
2023-09-17T05:49:57.160Z,12.90
2023-09-17T05:52:25.782Z,12.50
2023-09-17T05:54:53.510Z,12.80
2023-09-17T05:57:21.096Z,13.70
2023-09-17T05:59:48.924Z,13.70
2023-09-17T06:02:16.504Z,11.90
2023-09-17T06:04:48.866Z,13.10
2023-09-17T06:07:16.564Z,13.00
2023-09-17T06:09:44.060Z,13.10
2023-09-17T06:12:12.049Z,12.50
2023-09-17T06:14:40.433Z,11.00
2023-09-17T06:17:08.334Z,11.30
2023-09-17T06:19:38.723Z,11.70
2023-09-17T06:22:06.282Z,11.80
2023-09-17T06:24:34.295Z,11.40
2023-09-17T06:27:01.850Z,10.90
2023-09-17T06:29:29.328Z,10.40
2023-09-17T06:31:57.482Z,10.00
2023-09-17T06:34:25.181Z,10.30
2023-09-17T06:36:52.808Z,10.70
2023-09-17T06:39:20.495Z,11.70
2023-09-17T06:41:48.558Z,9.80
2023-09-17T06:44:17.436Z,9.60
2023-09-17T06:46:45.181Z,10.20
2023-09-17T06:49:13.032Z,10.20
2023-09-17T06:51:40.546Z,10.20
2023-09-17T06:54:08.101Z,10.40
2023-09-17T06:56:35.614Z,11.10
2023-09-17T06:59:03.791Z,9.30
2023-09-17T07:01:31.592Z,8.30
2023-09-17T07:03:59.350Z,8.30
2023-09-17T07:06:26.987Z,8.00
2023-09-17T07:08:57.028Z,8.40
2023-09-17T07:11:24.716Z,8.60
2023-09-17T07:13:52.526Z,8.10
2023-09-17T07:16:20.542Z,8.70
2023-09-17T07:18:48.252Z,8.40
2023-09-17T07:21:15.808Z,7.40
2023-09-17T07:23:44.191Z,7.60
2023-09-17T07:26:13.905Z,7.80
2023-09-17T07:28:41.640Z,7.10
2023-09-17T07:31:11.559Z,6.80
2023-09-17T07:36:08.159Z,6.90
2023-09-17T07:38:35.720Z,7.00
2023-09-17T07:41:03.715Z,6.80
2023-09-17T07:43:31.261Z,6.50
2023-09-17T07:45:59.020Z,6.80
2023-09-17T07:48:27.001Z,6.50
2023-09-17T07:51:01.595Z,6.20
2023-09-17T07:53:29.080Z,6.70
2023-09-17T07:55:57.829Z,6.50
2023-09-17T07:58:25.776Z,6.90
2023-09-17T08:00:54.868Z,6.10
2023-09-17T08:03:22.595Z,6.80
2023-09-17T08:05:50.854Z,6.60
2023-09-17T08:08:18.522Z,6.20
2023-09-17T08:10:46.066Z,6.10
2023-09-17T08:13:13.884Z,6.20
2023-09-17T08:15:41.462Z,6.30
2023-09-17T08:18:09.115Z,6.10
2023-09-17T08:20:36.795Z,5.80
2023-09-17T08:23:05.643Z,5.50
2023-09-17T08:25:34.818Z,6.00
2023-09-17T08:28:08.174Z,5.60
2023-09-17T08:30:37.094Z,5.70
2023-09-17T08:33:06.226Z,5.70
2023-09-17T08:35:33.726Z,5.30
2023-09-17T08:38:01.853Z,5.60
2023-09-17T08:40:33.205Z,5.40
2023-09-17T08:43:01.049Z,5.30
2023-09-17T08:45:29.960Z,5.10
2023-09-17T08:47:57.546Z,5.20
2023-09-17T08:50:26.205Z,5.00
2023-09-17T08:52:58.262Z,5.30
2023-09-17T08:55:26.127Z,5.40
2023-09-17T08:58:16.729Z,5.80
2023-09-17T09:00:48.217Z,5.70
2023-09-17T09:03:17.583Z,5.60
2023-09-17T09:05:47.253Z,5.70
2023-09-17T09:08:14.879Z,5.40
2023-09-17T09:10:42.427Z,5.40
2023-09-17T09:13:10.579Z,5.90
2023-09-17T09:15:38.043Z,5.30
2023-09-17T09:18:06.401Z,5.90
2023-09-17T09:20:33.957Z,5.30
2023-09-17T09:23:01.846Z,4.80
2023-09-17T09:25:30.101Z,5.20
2023-09-17T09:28:01.433Z,5.30
2023-09-17T09:30:29.534Z,5.30
2023-09-17T09:32:57.589Z,5.20
2023-09-17T09:35:25.507Z,5.20
2023-09-17T09:37:54.813Z,5.00
2023-09-17T09:40:23.054Z,5.00
2023-09-17T09:42:50.828Z,5.50
2023-09-17T09:45:19.142Z,4.80
2023-09-17T09:47:50.845Z,4.50
2023-09-17T09:50:25.657Z,5.00
2023-09-17T09:52:54.741Z,5.00
2023-09-17T09:55:26.008Z,5.00
2023-09-17T09:57:53.732Z,5.30
2023-09-17T10:00:30.778Z,5.00
2023-09-17T10:02:58.490Z,4.70
2023-09-17T10:05:38.444Z,4.80
2023-09-17T10:08:07.197Z,4.80
2023-09-17T10:10:36.161Z,4.70
2023-09-17T10:13:07.096Z,5.20
2023-09-17T10:15:35.886Z,5.00
2023-09-17T10:18:05.434Z,4.70
2023-09-17T10:20:33.138Z,5.20
2023-09-17T10:23:00.893Z,4.70
2023-09-17T10:25:29.888Z,5.10
2023-09-17T10:27:57.575Z,5.00
2023-09-17T10:30:25.323Z,5.00
2023-09-17T10:32:53.437Z,5.20
2023-09-17T10:35:21.250Z,5.00
2023-09-17T10:37:49.243Z,4.30
2023-09-17T10:40:17.125Z,4.40
2023-09-17T10:42:44.783Z,4.50
2023-09-17T10:45:12.282Z,4.50
2023-09-17T10:47:40.058Z,5.40
2023-09-17T10:50:08.440Z,5.00
2023-09-17T10:52:37.416Z,5.10
2023-09-17T10:55:09.089Z,4.80
2023-09-17T10:57:47.176Z,4.80
2023-09-17T11:00:18.555Z,4.50
2023-09-17T11:02:51.884Z,4.50
2023-09-17T11:05:20.762Z,4.60
2023-09-17T11:07:48.551Z,4.90
2023-09-17T11:10:29.427Z,4.30
2023-09-17T11:12:59.272Z,4.50
2023-09-17T11:15:26.910Z,3.90
2023-09-17T11:18:02.462Z,4.20
2023-09-17T11:20:30.378Z,4.50
2023-09-17T11:22:58.406Z,4.60
2023-09-17T11:25:36.812Z,4.30
2023-09-17T11:28:12.404Z,4.60
2023-09-17T11:30:56.444Z,4.50
2023-09-17T11:33:25.030Z,4.40
2023-09-17T11:35:56.240Z,4.40
2023-09-17T11:38:28.002Z,4.90
2023-09-17T11:41:31.389Z,4.00
2023-09-17T11:44:05.140Z,4.00
2023-09-17T11:46:34.652Z,4.50
2023-09-17T11:51:31.551Z,4.10
2023-09-17T11:54:03.850Z,4.50
2023-09-17T11:56:32.663Z,3.90
2023-09-17T11:59:01.696Z,4.20
2023-09-17T12:01:31.199Z,4.50
2023-09-17T12:06:29.361Z,4.00
2023-09-17T12:09:12.457Z,3.90
2023-09-17T12:11:59.108Z,4.20
2023-09-17T12:14:26.799Z,4.30
2023-09-17T12:16:54.586Z,4.30
2023-09-17T12:19:22.404Z,4.10
2023-09-17T12:21:53.007Z,3.90
2023-09-17T12:24:36.181Z,3.90
2023-09-17T12:27:26.683Z,3.90
2023-09-17T12:29:54.783Z,3.90
2023-09-17T12:32:26.340Z,4.20
2023-09-17T12:34:55.197Z,3.70
2023-09-17T12:37:23.332Z,3.60
2023-09-17T12:39:54.220Z,4.00
2023-09-17T12:42:22.592Z,4.00
2023-09-17T12:44:50.798Z,4.10
2023-09-17T12:47:19.961Z,4.00
2023-09-17T12:49:47.553Z,4.00
2023-09-17T12:52:16.792Z,3.70
2023-09-17T12:54:44.468Z,3.90
2023-09-17T12:57:12.167Z,3.60
2023-09-17T12:59:39.901Z,3.60
2023-09-17T13:02:08.339Z,3.50
2023-09-17T13:04:40.948Z,3.80
2023-09-17T13:07:16.387Z,3.60
2023-09-17T13:09:46.652Z,4.00
2023-09-17T13:12:21.087Z,3.80
2023-09-17T13:14:53.478Z,3.90
2023-09-17T13:17:21.995Z,3.70
2023-09-17T13:19:50.267Z,4.00
2023-09-17T13:22:18.442Z,4.00
2023-09-17T13:24:46.534Z,3.40
2023-09-17T13:27:18.783Z,3.80
2023-09-17T13:29:53.826Z,4.00
2023-09-17T13:32:21.703Z,4.00
2023-09-17T13:34:51.438Z,3.90
2023-09-17T13:37:19.056Z,3.80
2023-09-17T13:39:50.284Z,3.90
2023-09-17T13:42:18.065Z,3.70
2023-09-17T13:44:45.992Z,3.70
2023-09-17T13:47:13.711Z,3.20
2023-09-17T13:49:42.140Z,4.00
2023-09-17T13:52:10.873Z,3.90
2023-09-17T13:54:40.360Z,3.60
2023-09-17T13:57:08.349Z,3.50
2023-09-17T13:59:36.227Z,4.00
2023-09-17T14:02:05.209Z,3.40
2023-09-17T14:04:34.491Z,4.10
2023-09-17T14:07:02.787Z,4.00
2023-09-17T14:09:30.471Z,3.90
2023-09-17T14:11:58.110Z,3.40
2023-09-17T14:14:25.877Z,3.50
2023-09-17T14:16:53.558Z,4.10
2023-09-17T14:19:21.206Z,3.90
2023-09-17T14:21:49.091Z,3.90
2023-09-17T14:24:17.292Z,3.70
2023-09-17T14:26:45.192Z,4.00
2023-09-17T14:29:12.955Z,3.20
2023-09-17T14:31:43.755Z,3.60
2023-09-17T14:34:12.085Z,4.00
2023-09-17T14:36:39.944Z,3.90
2023-09-17T14:39:09.264Z,4.00
2023-09-17T14:41:38.501Z,3.40
2023-09-17T14:44:06.710Z,3.90
2023-09-17T14:46:39.074Z,4.00
2023-09-17T14:49:07.390Z,4.00
2023-09-17T14:51:34.957Z,3.90
2023-09-17T14:54:02.944Z,4.10
2023-09-17T14:56:31.988Z,3.70
2023-09-17T14:58:59.562Z,3.50
2023-09-17T15:04:01.110Z,3.80
2023-09-17T15:06:30.703Z,3.90
2023-09-17T15:08:58.733Z,3.80
2023-09-17T15:11:26.623Z,4.00
2023-09-17T15:13:54.241Z,4.00
2023-09-17T15:16:21.947Z,3.90
2023-09-17T15:18:49.846Z,3.20
2023-09-17T15:21:17.806Z,3.90
2023-09-17T15:23:45.320Z,3.80
2023-09-17T15:26:12.830Z,3.70
2023-09-17T15:28:40.694Z,3.70
2023-09-17T15:31:08.293Z,3.90
2023-09-17T15:33:35.926Z,4.20
2023-09-17T15:36:04.360Z,4.30
2023-09-17T15:38:31.967Z,3.90
2023-09-17T15:43:20.027Z,4.20
2023-09-17T15:45:47.564Z,3.90
2023-09-17T15:48:15.295Z,3.80
2023-09-17T15:50:43.116Z,4.20
2023-09-17T15:53:10.792Z,4.10
2023-09-17T15:55:38.549Z,4.00
2023-09-17T15:58:06.153Z,4.00
2023-09-17T16:00:33.648Z,4.10
2023-09-17T16:03:01.430Z,4.40
2023-09-17T16:05:29.606Z,4.20
2023-09-17T16:07:57.321Z,4.50
2023-09-17T16:10:25.730Z,4.60
2023-09-17T16:12:55.470Z,4.10
2023-09-17T16:15:24.173Z,4.50
2023-09-17T16:17:51.924Z,4.70
2023-09-17T16:20:19.716Z,4.70
2023-09-17T16:22:48.831Z,4.50
2023-09-17T16:25:16.899Z,4.60
2023-09-17T16:27:44.687Z,5.00
2023-09-17T16:30:14.593Z,6.30
2023-09-17T16:32:43.617Z,5.00
2023-09-17T16:35:11.602Z,5.30
2023-09-17T16:37:40.357Z,4.90
2023-09-17T16:40:08.574Z,4.90
2023-09-17T16:42:36.268Z,5.50
2023-09-17T16:45:05.945Z,4.90
2023-09-17T16:50:02.655Z,4.90
2023-09-17T16:52:30.325Z,5.30
2023-09-17T16:54:58.606Z,5.30
2023-09-17T16:57:26.164Z,5.20
2023-09-17T16:59:53.710Z,5.00
2023-09-17T17:02:21.293Z,5.70
2023-09-17T17:04:49.308Z,5.60
2023-09-17T17:07:17.233Z,5.80
2023-09-17T17:09:44.689Z,5.90
2023-09-17T17:12:12.245Z,6.30
2023-09-17T17:14:40.971Z,6.50
2023-09-17T17:17:08.733Z,6.80
2023-09-17T17:19:36.377Z,7.00
2023-09-17T17:22:04.560Z,17.30
2023-09-17T17:24:32.073Z,20.40
2023-09-17T17:26:59.582Z,19.90
2023-09-17T17:29:27.257Z,24.30
2023-09-17T17:31:54.898Z,24.30
2023-09-17T17:34:24.018Z,23.10
2023-09-17T17:36:52.859Z,20.20
2023-09-17T17:39:20.512Z,17.40
2023-09-17T17:41:48.246Z,15.00
2023-09-17T17:44:15.849Z,13.50
2023-09-17T17:46:43.537Z,12.80
2023-09-17T17:49:11.295Z,13.30
2023-09-17T17:51:39.865Z,11.80
2023-09-17T17:54:07.803Z,11.90
2023-09-17T17:56:35.403Z,12.60
2023-09-17T17:59:03.507Z,11.10
2023-09-17T18:01:31.443Z,10.00
2023-09-17T18:03:59.182Z,10.10
2023-09-17T18:06:26.937Z,11.60
2023-09-17T18:08:54.519Z,9.70
2023-09-17T18:11:22.169Z,10.20
2023-09-17T18:13:50.171Z,9.40
2023-09-17T18:16:18.267Z,9.30
2023-09-17T18:18:45.964Z,8.70
2023-09-17T18:21:13.606Z,9.50
2023-09-17T18:23:41.293Z,9.10
2023-09-17T18:26:08.893Z,8.70
2023-09-17T18:28:36.460Z,9.00
2023-09-17T18:31:04.377Z,8.30
2023-09-17T18:33:34.232Z,9.10
2023-09-17T18:36:03.203Z,8.50
2023-09-17T18:38:30.798Z,8.70
2023-09-17T18:40:58.458Z,8.60
2023-09-17T18:43:28.174Z,9.10
2023-09-17T18:45:55.775Z,8.40
2023-09-17T18:48:23.316Z,9.30
2023-09-17T18:50:50.824Z,8.80
2023-09-17T18:53:18.518Z,8.60
2023-09-17T18:55:46.257Z,8.90
2023-09-17T18:58:13.988Z,8.50
2023-09-17T19:00:42.841Z,9.60
2023-09-17T19:03:10.975Z,9.00
2023-09-17T19:05:39.169Z,8.80
2023-09-17T19:08:06.949Z,9.90
2023-09-17T19:10:35.097Z,10.10
2023-09-17T19:13:02.628Z,8.90
2023-09-17T19:15:31.619Z,9.20
2023-09-17T19:17:59.341Z,9.90
2023-09-17T19:20:27.757Z,8.90
2023-09-17T19:22:55.474Z,9.70
2023-09-17T19:25:23.173Z,9.50
2023-09-17T19:27:50.703Z,10.00
2023-09-17T19:30:18.221Z,9.30
2023-09-17T19:32:45.887Z,9.60
2023-09-17T19:35:14.205Z,9.60
2023-09-17T19:37:41.873Z,9.60
2023-09-17T19:40:10.573Z,9.90
2023-09-17T19:42:38.085Z,9.40
2023-09-17T19:45:06.445Z,9.40
2023-09-17T19:47:34.054Z,9.90
2023-09-17T19:50:01.912Z,9.60
2023-09-17T19:52:29.521Z,9.90
2023-09-17T19:54:57.075Z,9.80
2023-09-17T19:57:25.552Z,10.00
2023-09-17T19:59:53.364Z,9.60
2023-09-17T20:02:21.134Z,10.10
2023-09-17T20:04:48.893Z,10.20
2023-09-17T20:07:17.672Z,9.30
2023-09-17T20:09:45.208Z,10.50
2023-09-17T20:12:12.768Z,9.30
2023-09-17T20:14:40.389Z,9.10
2023-09-17T20:17:08.021Z,10.20
2023-09-17T20:19:37.382Z,9.70
2023-09-17T20:22:05.273Z,10.00
2023-09-17T20:24:32.893Z,10.50
2023-09-17T20:27:00.867Z,10.60
2023-09-17T20:29:28.444Z,10.00
2023-09-17T20:31:56.169Z,10.20
2023-09-17T20:34:24.146Z,10.60
2023-09-17T20:36:52.350Z,10.90
2023-09-17T20:39:19.846Z,11.30
2023-09-17T20:41:47.364Z,11.80
2023-09-17T20:44:15.016Z,11.40
2023-09-17T20:46:42.629Z,12.00
2023-09-17T20:49:10.669Z,12.70
2023-09-17T20:51:38.267Z,12.80
2023-09-17T20:54:06.224Z,13.00
2023-09-17T20:56:33.809Z,13.00
2023-09-17T20:59:01.466Z,13.20
2023-09-17T21:01:29.096Z,13.70
2023-09-17T21:03:56.885Z,13.60
2023-09-17T21:06:24.554Z,13.80
2023-09-17T21:08:52.198Z,13.20
2023-09-17T21:11:21.421Z,12.80
2023-09-17T21:13:49.237Z,13.80
2023-09-17T21:16:17.447Z,13.20
2023-09-17T21:18:45.052Z,14.10
2023-09-17T21:21:12.963Z,13.90
2023-09-17T21:23:40.724Z,13.10
2023-09-17T21:26:12.250Z,13.40
2023-09-17T21:28:40.106Z,12.70
2023-09-17T21:31:08.632Z,12.70
2023-09-17T21:33:36.354Z,13.40
2023-09-17T21:36:04.520Z,13.00
2023-09-17T21:38:32.398Z,12.90
2023-09-17T21:41:00.248Z,12.70
2023-09-17T21:43:28.177Z,12.90
2023-09-17T21:45:55.652Z,12.90
2023-09-17T21:48:23.295Z,13.90
2023-09-17T21:50:51.645Z,13.00
2023-09-17T21:53:19.995Z,13.30
2023-09-17T21:55:47.639Z,13.20
2023-09-17T21:58:15.376Z,12.50
2023-09-17T22:00:43.166Z,13.10
2023-09-17T22:03:10.888Z,12.90
2023-09-17T22:05:43.062Z,13.80
2023-09-17T22:08:11.450Z,12.90
2023-09-17T22:10:39.404Z,13.20
2023-09-17T22:13:07.549Z,13.40
2023-09-17T22:15:36.619Z,12.60
2023-09-17T22:18:04.663Z,13.00
2023-09-17T22:20:32.470Z,13.00
2023-09-17T22:23:00.653Z,12.70
2023-09-17T22:25:28.730Z,11.80
2023-09-17T22:27:56.409Z,11.90
2023-09-17T22:30:25.930Z,13.00
2023-09-17T22:32:53.703Z,12.00
2023-09-17T22:35:21.739Z,11.80
2023-09-17T22:37:49.593Z,12.40
2023-09-17T22:40:17.567Z,12.60
2023-09-17T22:42:45.122Z,12.00
2023-09-17T22:45:12.900Z,12.40
2023-09-17T22:47:40.494Z,12.40
2023-09-17T22:50:08.915Z,12.70
2023-09-17T22:52:36.647Z,11.90
2023-09-17T22:55:04.763Z,12.50
2023-09-17T22:57:32.265Z,12.30
2023-09-17T22:59:59.819Z,12.60
2023-09-17T23:02:27.576Z,12.10
2023-09-17T23:04:56.001Z,11.10
2023-09-17T23:07:23.610Z,11.30
2023-09-17T23:09:51.528Z,11.10
2023-09-17T23:12:19.088Z,11.80
2023-09-17T23:14:46.840Z,11.10
2023-09-17T23:17:14.423Z,12.10
2023-09-17T23:19:43.875Z,11.80
2023-09-17T23:22:11.362Z,12.10
2023-09-17T23:24:39.489Z,11.10
2023-09-17T23:27:08.332Z,11.30
2023-09-17T23:29:37.113Z,11.80
2023-09-17T23:32:05.066Z,10.90
2023-09-17T23:34:34.759Z,10.10
2023-09-17T23:37:02.294Z,11.00
2023-09-17T23:39:29.779Z,10.80
2023-09-17T23:41:57.391Z,11.20
2023-09-17T23:44:27.567Z,10.60
2023-09-17T23:46:55.298Z,11.00
2023-09-17T23:49:23.657Z,10.80
2023-09-17T23:51:51.178Z,11.30
2023-09-17T23:54:20.981Z,11.30
2023-09-17T23:56:48.844Z,11.30
2023-09-17T23:59:16.417Z,11.20
